Weather  for  Spartanburg Memorial  -  United States    United States

8 °C (46 °F)

Current METAR for Spartanburg Memorial is :

KSPA 210255Z AUTO 08003KT 10SM OVC008 08/07 A2957 RMK AO2 LTG DSNT E


This is a report for Spartanburg Memorial - United States.
The report was made 8 minutes ago, at 02:55 UTC .
The wind was blowing at a speed of 1.5 meters per second (3.5 miles per hour) from east (080°).
The temperature was 8 °C (46 °F), with a dew-point at 7 °C (45 °F).
The atmospheric pressure was 1001 hPa (29.57 inHg).
The relative humidity was 93.4%.
The sky was overcast from a height of 244 meter (800 feet)
The overall visibility was 16.1 kilometers (10.0 miles).


Country :   A   B   C   D   E   F   G   H   I   J   K   L   M   N   O   P   Q   R   S   T   U   V   W   Y   Z


Site Info  |  Disclaimer  |  Credits  |  Privacy
Contact us  |  Add to favorites
© 2013-2018 METARs - All rights reserved